createdAt,value
2019-01-14T00:00:45.493Z,91.52
2019-01-14T00:01:45.424Z,90.91
2019-01-14T00:02:45.409Z,90.49
2019-01-14T00:03:45.398Z,90.59
2019-01-14T00:04:45.392Z,90.59
2019-01-14T00:05:45.384Z,91.22
2019-01-14T00:06:45.402Z,90.59
2019-01-14T00:07:45.363Z,90.39
2019-01-14T00:08:45.366Z,90.39
2019-01-14T00:09:45.350Z,90.08
2019-01-14T00:10:45.332Z,90.70
2019-01-14T00:11:45.327Z,90.49
2019-01-14T00:12:45.345Z,89.87
2019-01-14T00:13:45.301Z,90.35
2019-01-14T00:14:45.325Z,90.59
2019-01-14T00:15:45.268Z,90.49
2019-01-14T00:16:45.270Z,90.80
2019-01-14T00:17:45.256Z,90.80
2019-01-14T00:18:45.280Z,89.98
2019-01-14T00:19:45.251Z,90.28
2019-01-14T00:20:45.219Z,89.87
2019-01-14T00:21:45.205Z,89.77
2019-01-14T00:22:45.201Z,90.19
2019-01-14T00:23:45.199Z,89.98
2019-01-14T00:24:45.215Z,89.98
2019-01-14T00:25:45.169Z,89.87
2019-01-14T00:26:45.158Z,89.98
2019-01-14T00:27:45.144Z,89.98
2019-01-14T00:28:45.138Z,90.19
2019-01-14T00:29:45.130Z,90.22
2019-01-14T00:30:45.162Z,90.19
2019-01-14T00:31:45.102Z,89.81
2019-01-14T00:32:45.091Z,89.67
2019-01-14T00:33:45.087Z,89.98
2019-01-14T00:34:45.066Z,89.98
2019-01-14T00:35:45.063Z,89.98
2019-01-14T00:36:45.075Z,89.81
2019-01-14T00:37:45.049Z,89.87
2019-01-14T00:38:45.029Z,90.02
2019-01-14T00:39:45.021Z,90.22
2019-01-14T00:40:45.014Z,90.12
2019-01-14T00:41:45.015Z,89.71
2019-01-14T00:42:45.051Z,89.87
2019-01-14T00:43:45.011Z,89.67
2019-01-14T00:44:44.964Z,89.92
2019-01-14T00:45:44.964Z,90.02
2019-01-14T00:46:44.941Z,90.02
2019-01-14T00:47:44.960Z,90.22
2019-01-14T00:48:44.977Z,90.12
2019-01-14T00:49:44.908Z,90.12
2019-01-14T00:50:44.894Z,90.74
2019-01-14T00:51:44.895Z,90.02
2019-01-14T00:52:44.881Z,90.08
2019-01-14T00:53:44.898Z,89.87
2019-01-14T00:54:44.908Z,90.08
2019-01-14T00:55:44.838Z,89.98
2019-01-14T00:56:44.838Z,89.36
2019-01-14T00:57:44.839Z,88.90
2019-01-14T00:58:44.807Z,88.18
2019-01-14T00:59:44.805Z,87.77
2019-01-14T01:00:44.855Z,88.18
2019-01-14T01:01:44.793Z,88.70
2019-01-14T01:02:44.772Z,88.29
2019-01-14T01:03:44.755Z,88.29
2019-01-14T01:04:44.744Z,88.29
2019-01-14T01:05:44.730Z,88.18
2019-01-14T01:06:44.764Z,86.74
2019-01-14T01:07:44.741Z,86.84
2019-01-14T01:08:44.723Z,87.26
2019-01-14T01:09:44.690Z,87.66
2019-01-14T01:10:44.689Z,87.66
2019-01-14T01:11:44.684Z,87.77
2019-01-14T01:12:44.713Z,87.05
2019-01-14T01:13:44.649Z,87.56
2019-01-14T01:14:44.634Z,87.35
2019-01-14T01:15:44.634Z,87.77
2019-01-14T01:16:44.629Z,88.18
2019-01-14T01:17:44.616Z,87.98
2019-01-14T01:18:44.646Z,87.26
2019-01-14T01:19:44.595Z,88.39
2019-01-14T01:20:44.567Z,88.18
2019-01-14T01:21:44.564Z,88.08
2019-01-14T01:22:44.561Z,88.70
2019-01-14T01:23:44.540Z,88.18
2019-01-14T01:24:44.624Z,88.08
2019-01-14T01:25:44.515Z,88.18
2019-01-14T01:26:44.503Z,88.39
2019-01-14T01:27:44.507Z,88.39
2019-01-14T01:28:44.498Z,89.25
2019-01-14T01:29:44.495Z,89.32
2019-01-14T01:30:44.500Z,89.36
2019-01-14T01:31:44.467Z,88.90
2019-01-14T01:32:44.442Z,89.22
2019-01-14T01:33:44.475Z,89.36
2019-01-14T01:34:44.427Z,89.46
2019-01-14T01:35:44.414Z,90.04
2019-01-14T01:36:44.597Z,89.22
2019-01-14T01:37:44.386Z,89.22
2019-01-14T01:38:44.380Z,89.22
2019-01-14T01:39:44.367Z,89.22
2019-01-14T01:40:44.393Z,89.62
2019-01-14T01:41:44.354Z,89.94
2019-01-14T01:42:44.383Z,89.87
2019-01-14T01:43:44.322Z,89.83
2019-01-14T01:44:44.318Z,89.83
2019-01-14T01:45:44.311Z,89.94
2019-01-14T01:46:44.289Z,89.32
2019-01-14T01:47:44.310Z,89.22
2019-01-14T01:48:44.297Z,90.14
2019-01-14T01:49:44.289Z,89.73
2019-01-14T01:50:44.282Z,89.56
2019-01-14T01:51:44.253Z,90.14
2019-01-14T01:52:44.281Z,89.11
2019-01-14T01:53:44.226Z,89.11
2019-01-14T01:54:44.262Z,90.08
2019-01-14T01:55:44.192Z,89.94
2019-01-14T01:56:44.198Z,89.32
2019-01-14T01:57:44.182Z,90.04
2019-01-14T01:58:44.163Z,89.67
2019-01-14T01:59:44.202Z,89.56
2019-01-14T02:00:44.198Z,89.22
2019-01-14T02:01:44.127Z,89.36
2019-01-14T02:02:44.116Z,89.73
2019-01-14T02:03:44.111Z,90.08
2019-01-14T02:04:44.089Z,89.77
2019-01-14T02:05:44.083Z,89.77
2019-01-14T02:06:44.119Z,89.98
2019-01-14T02:07:44.058Z,90.49
2019-01-14T02:08:44.045Z,90.19
2019-01-14T02:09:44.043Z,90.08
2019-01-14T02:10:44.028Z,88.84
2019-01-14T02:11:44.028Z,89.98
2019-01-14T02:12:44.056Z,88.53
2019-01-14T02:13:43.991Z,88.84
2019-01-14T02:14:43.994Z,88.95
2019-01-14T02:15:43.979Z,88.84
2019-01-14T02:16:43.958Z,88.74
2019-01-14T02:17:43.948Z,88.53
2019-01-14T02:18:43.986Z,89.15
2019-01-14T02:19:43.937Z,89.25
2019-01-14T02:20:43.922Z,89.15
2019-01-14T02:21:43.956Z,89.36
2019-01-14T02:22:43.912Z,90.08
2019-01-14T02:23:43.911Z,90.08
2019-01-14T02:24:43.944Z,89.87
2019-01-14T02:25:43.877Z,89.87
2019-01-14T02:26:43.874Z,90.59
2019-01-14T02:27:43.859Z,90.91
2019-01-14T02:28:43.859Z,91.26
2019-01-14T02:29:43.831Z,91.16
2019-01-14T02:30:43.869Z,92.19
2019-01-14T02:31:43.797Z,90.84
2019-01-14T02:32:43.808Z,90.70
2019-01-14T02:33:43.775Z,91.01
2019-01-14T02:34:43.769Z,90.70
2019-01-14T02:35:43.753Z,90.95
2019-01-14T02:36:48.335Z,90.64
2019-01-14T02:37:44.748Z,90.12
2019-01-14T02:38:43.732Z,89.81
2019-01-14T02:39:43.712Z,90.22
2019-01-14T02:40:43.712Z,90.84
2019-01-14T02:41:43.695Z,92.19
2019-01-14T02:42:43.759Z,92.74
2019-01-14T02:43:43.671Z,93.88
2019-01-14T02:44:43.682Z,94.09
2019-01-14T02:45:43.651Z,94.60
2019-01-14T02:46:43.639Z,94.92
2019-01-14T02:47:43.626Z,95.27
2019-01-14T02:48:43.702Z,95.32
2019-01-14T02:49:43.606Z,93.88
2019-01-14T02:50:43.615Z,94.54
2019-01-14T02:51:43.583Z,94.65
2019-01-14T02:52:43.571Z,94.50
2019-01-14T02:53:43.565Z,94.23
2019-01-14T02:54:43.614Z,94.81
2019-01-14T02:55:43.540Z,94.65
2019-01-14T02:56:43.526Z,95.48
2019-01-14T02:57:43.518Z,95.22
2019-01-14T02:58:43.511Z,94.75
2019-01-14T02:59:43.496Z,94.75
2019-01-14T03:00:43.534Z,93.30
2019-01-14T03:01:43.475Z,93.57
2019-01-14T03:02:43.464Z,93.37
2019-01-14T03:03:43.458Z,93.41
2019-01-14T03:04:43.442Z,93.37
2019-01-14T03:05:43.438Z,92.85
2019-01-14T03:06:43.484Z,93.37
2019-01-14T03:07:43.462Z,93.47
2019-01-14T03:08:43.399Z,94.50
2019-01-14T03:09:43.387Z,94.50
2019-01-14T03:10:43.377Z,93.68
2019-01-14T03:11:43.387Z,93.16
2019-01-14T03:12:43.417Z,92.95
2019-01-14T03:13:43.346Z,92.64
2019-01-14T03:14:43.338Z,92.95
2019-01-14T03:15:43.321Z,92.74
2019-01-14T03:16:43.312Z,93.16
2019-01-14T03:17:43.304Z,92.23
2019-01-14T03:18:43.350Z,91.40
2019-01-14T03:19:43.279Z,90.74
2019-01-14T03:20:43.268Z,91.36
2019-01-14T03:21:43.261Z,91.88
2019-01-14T03:22:43.246Z,91.98
2019-01-14T03:23:43.239Z,91.40
2019-01-14T03:24:43.402Z,91.61
2019-01-14T03:25:43.213Z,91.98
2019-01-14T03:26:43.205Z,92.44
2019-01-14T03:27:43.191Z,92.13
2019-01-14T03:28:43.180Z,92.08
2019-01-14T03:29:43.170Z,92.13
2019-01-14T03:30:43.210Z,91.98
2019-01-14T03:31:43.149Z,92.08
2019-01-14T03:32:43.141Z,92.33
2019-01-14T03:33:43.130Z,91.82
2019-01-14T03:34:43.119Z,91.92
2019-01-14T03:35:43.105Z,89.95
2019-01-14T03:36:43.158Z,90.22
2019-01-14T03:37:43.084Z,90.12
2019-01-14T03:38:43.073Z,90.43
2019-01-14T03:39:43.065Z,90.33
2019-01-14T03:40:43.053Z,90.74
2019-01-14T03:41:43.042Z,90.64
2019-01-14T03:42:43.097Z,90.53
2019-01-14T03:43:43.020Z,90.33
2019-01-14T03:44:43.009Z,90.33
2019-01-14T03:45:42.999Z,90.12
2019-01-14T03:46:42.991Z,90.53
2019-01-14T03:47:42.976Z,90.74
2019-01-14T03:48:43.051Z,90.43
2019-01-14T03:49:42.956Z,90.53
2019-01-14T03:50:42.947Z,90.95
2019-01-14T03:51:42.934Z,90.64
2019-01-14T03:52:42.923Z,90.53
2019-01-14T03:53:42.921Z,91.20
2019-01-14T03:54:43.115Z,91.98
2019-01-14T03:55:42.890Z,91.67
2019-01-14T03:56:42.880Z,91.16
2019-01-14T03:57:42.874Z,90.53
2019-01-14T03:58:42.861Z,90.53
2019-01-14T03:59:42.851Z,89.81
2019-01-14T04:00:42.910Z,90.43
2019-01-14T04:01:42.827Z,90.22
2019-01-14T04:02:42.815Z,90.02
2019-01-14T04:03:42.807Z,90.53
2019-01-14T04:04:42.794Z,90.53
2019-01-14T04:05:42.783Z,90.64
2019-01-14T04:06:42.821Z,91.50
2019-01-14T04:07:42.764Z,91.88
2019-01-14T04:08:42.754Z,91.26
2019-01-14T04:09:42.738Z,90.99
2019-01-14T04:10:42.728Z,90.68
2019-01-14T04:11:42.721Z,91.61
2019-01-14T04:12:42.926Z,91.88
2019-01-14T04:13:42.698Z,92.33
2019-01-14T04:14:42.688Z,92.19
2019-01-14T04:15:42.691Z,91.71
2019-01-14T04:16:42.663Z,92.23
2019-01-14T04:17:42.658Z,92.33
2019-01-14T04:18:42.718Z,92.33
2019-01-14T04:19:42.635Z,92.74
2019-01-14T04:20:42.626Z,92.74
2019-01-14T04:21:42.609Z,93.47
2019-01-14T04:22:42.603Z,93.47
2019-01-14T04:23:42.593Z,93.37
2019-01-14T04:24:42.634Z,93.26
2019-01-14T04:25:42.567Z,93.88
2019-01-14T04:26:42.561Z,93.78
2019-01-14T04:27:42.552Z,94.50
2019-01-14T04:28:42.535Z,95.17
2019-01-14T04:29:42.526Z,96.72
2019-01-14T04:30:42.580Z,96.14
2019-01-14T04:31:42.508Z,95.31
2019-01-14T04:32:42.509Z,94.12
2019-01-14T04:33:42.480Z,94.37
2019-01-14T04:34:42.472Z,94.98
2019-01-14T04:35:42.466Z,95.29
2019-01-14T04:36:42.535Z,95.03
2019-01-14T04:37:42.451Z,96.06
2019-01-14T04:38:42.426Z,96.06
2019-01-14T04:39:42.416Z,96.11
2019-01-14T04:40:42.407Z,96.21
2019-01-14T04:41:42.410Z,96.73
2019-01-14T04:42:42.442Z,97.19
2019-01-14T04:43:42.372Z,97.60
2019-01-14T04:44:42.364Z,98.12
2019-01-14T04:45:42.354Z,98.12
2019-01-14T04:46:42.352Z,98.02
2019-01-14T04:47:42.358Z,98.17
2019-01-14T04:48:42.361Z,98.33
2019-01-14T04:49:42.308Z,98.27
2019-01-14T04:50:42.298Z,98.79
2019-01-14T04:51:42.284Z,99.05
2019-01-14T04:52:42.283Z,99.05
2019-01-14T04:53:42.268Z,99.05
2019-01-14T04:54:42.321Z,98.74
2019-01-14T04:55:42.241Z,98.54
2019-01-14T04:56:42.231Z,99.26
2019-01-14T04:57:42.221Z,98.74
2019-01-14T04:58:42.211Z,98.74
2019-01-14T04:59:42.199Z,98.43
2019-01-14T05:00:42.240Z,98.54
2019-01-14T05:01:42.186Z,98.33
2019-01-14T05:02:42.165Z,99.05
2019-01-14T05:03:42.162Z,99.26
2019-01-14T05:04:42.146Z,98.80
2019-01-14T05:05:42.139Z,98.80
2019-01-14T05:06:42.191Z,98.85
2019-01-14T05:07:42.123Z,98.85
2019-01-14T05:08:42.102Z,98.91
2019-01-14T05:09:42.092Z,98.49
2019-01-14T05:10:42.078Z,98.70
2019-01-14T05:11:42.071Z,99.01
2019-01-14T05:12:42.127Z,98.91
2019-01-14T05:13:42.047Z,98.91
2019-01-14T05:14:42.036Z,99.01
2019-01-14T05:15:42.027Z,99.22
2019-01-14T05:16:42.013Z,99.11
2019-01-14T05:17:42.005Z,98.60
2019-01-14T05:18:42.070Z,98.28
2019-01-14T05:19:41.986Z,98.08
2019-01-14T05:20:41.970Z,97.56
2019-01-14T05:21:41.971Z,97.35
2019-01-14T05:22:41.979Z,97.35
2019-01-14T05:23:41.942Z,97.45
2019-01-14T05:24:41.992Z,97.62
2019-01-14T05:25:41.921Z,97.72
2019-01-14T05:26:41.909Z,97.52
2019-01-14T05:27:41.904Z,97.72
2019-01-14T05:28:41.886Z,97.31
2019-01-14T05:29:41.875Z,97.00
2019-01-14T05:30:41.925Z,97.00
2019-01-14T05:31:42.009Z,97.62
2019-01-14T05:32:41.846Z,97.72
2019-01-14T05:33:41.830Z,97.41
2019-01-14T05:34:41.821Z,97.41
2019-01-14T05:35:41.819Z,97.52
2019-01-14T05:36:41.884Z,97.72
2019-01-14T05:37:41.788Z,97.62
2019-01-14T05:38:41.781Z,98.03
2019-01-14T05:39:41.769Z,97.83
2019-01-14T05:40:41.775Z,98.24
2019-01-14T05:41:41.743Z,98.44
2019-01-14T05:42:41.798Z,98.24
2019-01-14T05:43:41.727Z,98.24
2019-01-14T05:44:41.714Z,98.65
2019-01-14T05:45:41.705Z,98.75
2019-01-14T05:46:41.693Z,98.86
2019-01-14T05:47:41.680Z,98.65
2019-01-14T05:48:41.738Z,98.65
2019-01-14T05:49:41.662Z,98.75
2019-01-14T05:50:41.647Z,98.55
2019-01-14T05:51:41.637Z,98.96
2019-01-14T05:52:41.624Z,98.86
2019-01-14T05:53:41.616Z,98.75
2019-01-14T05:54:41.674Z,98.96
2019-01-14T05:55:41.591Z,98.96
2019-01-14T05:56:41.582Z,98.75
2019-01-14T05:57:41.607Z,98.65
2019-01-14T05:58:41.559Z,98.75
2019-01-14T05:59:41.555Z,98.24
2019-01-14T06:00:41.592Z,98.24
2019-01-14T06:01:41.528Z,98.24
2019-01-14T06:02:41.518Z,97.93
2019-01-14T06:03:41.505Z,97.93
2019-01-14T06:04:41.499Z,98.13
2019-01-14T06:05:41.485Z,97.93
2019-01-14T06:06:41.542Z,97.83
2019-01-14T06:07:44.960Z,98.65
2019-01-14T06:08:41.452Z,98.34
2019-01-14T06:09:41.440Z,97.99
2019-01-14T06:10:41.433Z,98.30
2019-01-14T06:11:41.421Z,97.78
2019-01-14T06:12:41.479Z,97.57
2019-01-14T06:13:41.398Z,98.19
2019-01-14T06:14:41.388Z,98.30
2019-01-14T06:15:41.378Z,98.09
2019-01-14T06:16:41.368Z,98.09
2019-01-14T06:17:41.357Z,97.99
2019-01-14T06:18:41.405Z,97.99
2019-01-14T06:19:41.341Z,97.88
2019-01-14T06:20:41.327Z,97.78
2019-01-14T06:21:42.547Z,97.53
2019-01-14T06:22:41.306Z,97.94
2019-01-14T06:23:41.289Z,97.84
2019-01-14T06:24:41.345Z,97.99
2019-01-14T06:25:41.275Z,98.19
2019-01-14T06:26:41.258Z,98.30
2019-01-14T06:27:41.249Z,97.78
2019-01-14T06:28:41.239Z,97.99
2019-01-14T06:29:41.225Z,97.99
2019-01-14T06:30:41.415Z,97.67
2019-01-14T06:31:41.206Z,97.78
2019-01-14T06:32:41.195Z,97.99
2019-01-14T06:33:41.183Z,97.67
2019-01-14T06:34:41.173Z,97.88
2019-01-14T06:35:41.164Z,97.88
2019-01-14T06:36:41.209Z,97.99
2019-01-14T06:37:41.141Z,97.67
2019-01-14T06:38:41.127Z,96.75
2019-01-14T06:39:41.119Z,97.36
2019-01-14T06:40:41.106Z,96.75
2019-01-14T06:41:41.096Z,96.44
2019-01-14T06:42:41.153Z,95.92
2019-01-14T06:43:41.076Z,96.64
2019-01-14T06:44:41.062Z,96.64
2019-01-14T06:45:41.054Z,96.27
2019-01-14T06:46:41.046Z,95.81
2019-01-14T06:47:41.031Z,95.61
2019-01-14T06:48:41.065Z,95.50
2019-01-14T06:49:41.008Z,96.12
2019-01-14T06:50:41.001Z,96.58
2019-01-14T06:51:40.989Z,95.34
2019-01-14T06:52:40.977Z,95.50
2019-01-14T06:53:40.967Z,95.54
2019-01-14T06:54:41.028Z,95.71
2019-01-14T06:55:40.945Z,96.02
2019-01-14T06:56:40.935Z,96.48
2019-01-14T06:57:40.933Z,96.69
2019-01-14T06:58:40.915Z,96.64
2019-01-14T06:59:41.117Z,96.69
2019-01-14T07:00:40.943Z,96.37
2019-01-14T07:01:40.881Z,96.54
2019-01-14T07:02:40.868Z,96.44
2019-01-14T07:03:40.861Z,96.23
2019-01-14T07:04:40.849Z,96.54
2019-01-14T07:05:40.836Z,96.48
2019-01-14T07:06:41.438Z,96.75
2019-01-14T07:07:40.816Z,96.44
2019-01-14T07:08:40.806Z,96.23
2019-01-14T07:09:40.795Z,96.37
2019-01-14T07:10:40.786Z,96.48
2019-01-14T07:11:40.771Z,96.85
2019-01-14T07:12:40.890Z,96.33
2019-01-14T07:13:40.751Z,96.44
2019-01-14T07:14:40.739Z,96.33
2019-01-14T07:15:40.729Z,96.64
2019-01-14T07:16:40.719Z,96.27
2019-01-14T07:17:40.709Z,96.58
2019-01-14T07:18:40.753Z,96.17
2019-01-14T07:19:40.687Z,96.44
2019-01-14T07:20:40.675Z,96.69
2019-01-14T07:21:40.676Z,95.71
2019-01-14T07:22:40.654Z,96.44
2019-01-14T07:23:40.641Z,96.02
2019-01-14T07:24:40.678Z,96.23
2019-01-14T07:25:40.634Z,96.48
2019-01-14T07:26:40.610Z,96.58
2019-01-14T07:27:40.600Z,96.48
2019-01-14T07:28:40.588Z,96.54
2019-01-14T07:29:40.576Z,96.58
2019-01-14T07:30:40.608Z,96.89
2019-01-14T07:31:40.557Z,97.31
2019-01-14T07:32:40.571Z,96.89
2019-01-14T07:33:40.534Z,97.41
2019-01-14T07:34:40.628Z,96.64
2019-01-14T07:35:40.511Z,96.75
2019-01-14T07:36:40.554Z,97.36
2019-01-14T07:37:40.495Z,96.69
2019-01-14T07:38:40.493Z,97.20
2019-01-14T07:39:40.479Z,97.00
2019-01-14T07:40:40.478Z,96.64
2019-01-14T07:41:40.462Z,97.06
2019-01-14T07:42:40.483Z,96.89
2019-01-14T07:43:40.433Z,96.58
2019-01-14T07:44:40.429Z,97.00
2019-01-14T07:45:40.412Z,97.06
2019-01-14T07:46:40.403Z,97.10
2019-01-14T07:47:40.419Z,96.79
2019-01-14T07:48:40.407Z,96.75
2019-01-14T07:49:40.376Z,96.85
2019-01-14T07:50:40.362Z,97.20
2019-01-14T07:51:41.454Z,96.95
2019-01-14T07:52:40.337Z,96.54
2019-01-14T07:53:40.329Z,96.95
2019-01-14T07:54:40.358Z,96.44
2019-01-14T07:55:40.303Z,96.33
2019-01-14T07:56:40.294Z,96.75
2019-01-14T07:57:40.277Z,96.64
2019-01-14T07:58:40.281Z,96.75
2019-01-14T07:59:40.287Z,96.64
2019-01-14T08:00:40.282Z,96.54
2019-01-14T08:01:40.238Z,96.54
2019-01-14T08:02:40.227Z,96.12
2019-01-14T08:03:40.218Z,95.92
2019-01-14T08:04:40.271Z,96.85
2019-01-14T08:05:40.216Z,96.54
2019-01-14T08:06:40.217Z,96.39
2019-01-14T08:07:40.231Z,96.64
2019-01-14T08:08:40.159Z,96.54
2019-01-14T08:09:40.159Z,96.59
2019-01-14T08:10:40.138Z,96.44
2019-01-14T08:11:40.139Z,96.12
2019-01-14T08:12:40.153Z,96.54
2019-01-14T08:13:40.101Z,96.75
2019-01-14T08:14:42.749Z,96.23
2019-01-14T08:15:40.081Z,96.85
2019-01-14T08:16:40.073Z,97.16
2019-01-14T08:17:40.059Z,96.64
2019-01-14T08:18:40.080Z,96.49
2019-01-14T08:19:40.042Z,96.54
2019-01-14T08:20:40.042Z,96.33
2019-01-14T08:21:40.018Z,96.44
2019-01-14T08:22:40.005Z,96.29
2019-01-14T08:23:39.999Z,95.87
2019-01-14T08:24:40.011Z,96.70
2019-01-14T08:25:39.973Z,95.98
2019-01-14T08:26:39.972Z,96.02
2019-01-14T08:27:39.962Z,95.98
2019-01-14T08:28:39.963Z,96.59
2019-01-14T08:29:39.941Z,96.29
2019-01-14T08:30:39.973Z,96.29
2019-01-14T08:31:39.911Z,95.67
2019-01-14T08:32:39.909Z,95.46
2019-01-14T08:33:39.953Z,95.46
2019-01-14T08:34:39.883Z,95.04
2019-01-14T08:35:39.874Z,94.73
2019-01-14T08:36:39.927Z,95.25
2019-01-14T08:37:39.855Z,94.18
2019-01-14T08:38:39.844Z,93.87
2019-01-14T08:39:39.829Z,93.91
2019-01-14T08:40:39.845Z,93.76
2019-01-14T08:41:39.812Z,93.45
2019-01-14T08:42:39.840Z,93.35
2019-01-14T08:43:39.800Z,93.66
2019-01-14T08:44:39.805Z,93.45
2019-01-14T08:45:39.803Z,93.55
2019-01-14T08:46:39.790Z,93.76
2019-01-14T08:47:39.745Z,93.97
2019-01-14T08:48:40.091Z,94.18
2019-01-14T08:49:39.739Z,93.45
2019-01-14T08:50:39.709Z,93.76
2019-01-14T08:51:39.702Z,93.87
2019-01-14T08:52:39.691Z,94.48
2019-01-14T08:53:39.689Z,94.69
2019-01-14T08:54:39.708Z,94.69
2019-01-14T08:55:39.665Z,94.59
2019-01-14T08:56:39.645Z,94.59
2019-01-14T08:57:39.652Z,94.90
2019-01-14T08:58:39.615Z,94.48
2019-01-14T08:59:39.613Z,95.31
2019-01-14T09:00:39.628Z,94.79
2019-01-14T09:01:39.617Z,95.52
2019-01-14T09:02:39.587Z,95.52
2019-01-14T09:03:39.567Z,95.62
2019-01-14T09:04:39.551Z,96.19
2019-01-14T09:05:39.542Z,95.87
2019-01-14T09:06:39.569Z,96.49
2019-01-14T09:07:39.528Z,96.70
2019-01-14T09:08:39.508Z,97.01
2019-01-14T09:09:39.499Z,96.59
2019-01-14T09:10:39.487Z,96.91
2019-01-14T09:11:39.475Z,96.45
2019-01-14T09:12:39.660Z,96.45
2019-01-14T09:13:39.455Z,96.97
2019-01-14T09:14:39.467Z,96.76
2019-01-14T09:15:39.434Z,96.14
2019-01-14T09:16:39.422Z,95.83
2019-01-14T09:17:39.412Z,95.94
2019-01-14T09:18:39.437Z,95.52
2019-01-14T09:19:39.395Z,95.21
2019-01-14T09:20:39.400Z,96.03
2019-01-14T09:21:39.369Z,96.14
2019-01-14T09:22:39.358Z,95.94
2019-01-14T09:23:39.350Z,95.94
2019-01-14T09:24:39.379Z,95.94
2019-01-14T09:25:39.323Z,96.14
2019-01-14T09:26:39.332Z,96.45
2019-01-14T09:27:39.302Z,96.03
2019-01-14T09:28:39.294Z,96.34
2019-01-14T09:29:39.317Z,96.45
2019-01-14T09:30:39.304Z,92.77
2019-01-14T09:31:39.261Z,92.55
2019-01-14T09:32:39.265Z,93.10
2019-01-14T09:33:39.239Z,94.74
2019-01-14T09:34:39.229Z,95.72
2019-01-14T09:35:39.221Z,96.76
2019-01-14T09:36:39.245Z,98.11
2019-01-14T09:37:39.257Z,98.16
2019-01-14T09:38:39.205Z,98.47
2019-01-14T09:39:39.173Z,98.78
2019-01-14T09:40:39.163Z,98.68
2019-01-14T09:41:39.153Z,99.19
2019-01-14T09:42:39.170Z,99.82
2019-01-14T09:43:39.131Z,99.82
2019-01-14T09:44:39.147Z,99.71
2019-01-14T09:45:39.113Z,99.99
2019-01-14T09:46:39.132Z,99.99
2019-01-14T09:47:39.090Z,99.99
2019-01-14T09:48:39.115Z,99.82
2019-01-14T09:49:39.066Z,99.99
2019-01-14T09:50:39.065Z,99.99
2019-01-14T09:51:39.047Z,99.99
2019-01-14T09:52:39.042Z,99.82
2019-01-14T09:53:39.024Z,99.71
2019-01-14T09:54:39.089Z,99.24
2019-01-14T09:55:39.002Z,99.34
2019-01-14T09:56:39.028Z,99.65
2019-01-14T09:57:39.082Z,99.55
2019-01-14T09:58:38.969Z,99.86
2019-01-14T09:59:38.960Z,99.55
2019-01-14T10:00:39.035Z,99.07
2019-01-14T10:01:38.938Z,98.86
2019-01-14T10:02:38.944Z,98.76
2019-01-14T10:03:38.915Z,98.66
2019-01-14T10:04:38.904Z,98.24
2019-01-14T10:05:38.894Z,98.24
2019-01-14T10:06:38.925Z,98.45
2019-01-14T10:07:38.873Z,98.24
2019-01-14T10:08:43.092Z,98.55
2019-01-14T10:09:38.853Z,98.41
2019-01-14T10:10:38.840Z,98.10
2019-01-14T10:11:38.834Z,98.66
2019-01-14T10:12:38.856Z,98.51
2019-01-14T10:13:38.818Z,98.24
2019-01-14T10:14:38.843Z,98.41
2019-01-14T10:15:38.786Z,98.51
2019-01-14T10:16:38.789Z,98.55
2019-01-14T10:17:38.765Z,98.51
2019-01-14T10:18:38.788Z,98.41
2019-01-14T10:19:38.743Z,98.82
2019-01-14T10:20:38.751Z,98.51
2019-01-14T10:21:38.722Z,98.51
2019-01-14T10:22:38.727Z,98.30
2019-01-14T10:23:38.705Z,98.30
2019-01-14T10:24:38.731Z,98.26
2019-01-14T10:25:38.679Z,98.10
2019-01-14T10:26:38.685Z,98.16
2019-01-14T10:27:38.659Z,97.68
2019-01-14T10:28:38.650Z,97.64
2019-01-14T10:29:38.637Z,97.64
2019-01-14T10:30:38.660Z,97.95
2019-01-14T10:31:38.613Z,97.22
2019-01-14T10:32:39.445Z,96.60
2019-01-14T10:33:38.615Z,97.17
2019-01-14T10:34:38.581Z,97.07
2019-01-14T10:35:38.582Z,97.17
2019-01-14T10:36:38.587Z,96.55
2019-01-14T10:37:38.548Z,97.28
2019-01-14T10:38:38.556Z,97.17
2019-01-14T10:39:38.527Z,96.51
2019-01-14T10:40:38.516Z,97.34
2019-01-14T10:41:38.506Z,97.34
2019-01-14T10:42:38.531Z,97.07
2019-01-14T10:43:38.498Z,97.03
2019-01-14T10:44:38.475Z,96.76
2019-01-14T10:45:38.464Z,96.92
2019-01-14T10:46:38.452Z,96.82
2019-01-14T10:47:38.441Z,97.75
2019-01-14T10:48:38.467Z,97.13
2019-01-14T10:49:38.431Z,97.44
2019-01-14T10:50:38.411Z,97.24
2019-01-14T10:51:38.397Z,96.82
2019-01-14T10:52:38.387Z,96.26
2019-01-14T10:53:38.377Z,96.20
2019-01-14T10:54:38.409Z,96.05
2019-01-14T10:55:38.360Z,96.78
2019-01-14T10:56:38.344Z,96.36
2019-01-14T10:57:38.393Z,96.88
2019-01-14T10:58:38.325Z,97.50
2019-01-14T10:59:38.315Z,97.39
2019-01-14T11:00:38.337Z,96.88
2019-01-14T11:01:38.304Z,97.09
2019-01-14T11:02:38.312Z,96.67
2019-01-14T11:03:38.283Z,96.88
2019-01-14T11:04:38.258Z,96.62
2019-01-14T11:05:38.248Z,96.62
2019-01-14T11:06:38.306Z,96.62
2019-01-14T11:07:38.226Z,96.62
2019-01-14T11:08:38.228Z,96.58
2019-01-14T11:09:38.233Z,96.79
2019-01-14T11:10:38.193Z,96.62
2019-01-14T11:11:38.183Z,96.17
2019-01-14T11:12:38.202Z,96.69
2019-01-14T11:13:38.161Z,96.31
2019-01-14T11:14:38.166Z,96.21
2019-01-14T11:15:38.156Z,96.11
2019-01-14T11:16:38.127Z,96.42
2019-01-14T11:17:38.118Z,96.83
2019-01-14T11:18:38.155Z,96.69
2019-01-14T11:19:38.099Z,95.96
2019-01-14T11:20:38.088Z,96.69
2019-01-14T11:21:38.093Z,95.14
2019-01-14T11:22:38.074Z,94.98
2019-01-14T11:23:38.054Z,94.78
2019-01-14T11:24:38.077Z,94.26
2019-01-14T11:25:38.032Z,95.15
2019-01-14T11:26:38.020Z,95.15
2019-01-14T11:27:38.015Z,94.47
2019-01-14T11:28:37.999Z,94.47
2019-01-14T11:29:37.991Z,93.95
2019-01-14T11:30:38.102Z,93.85
2019-01-14T11:31:37.965Z,94.37
2019-01-14T11:32:37.955Z,93.33
2019-01-14T11:33:37.960Z,93.12
2019-01-14T11:34:37.947Z,92.71
2019-01-14T11:35:37.922Z,93.33
2019-01-14T11:36:37.945Z,92.61
2019-01-14T11:37:37.979Z,92.36
2019-01-14T11:38:37.895Z,92.25
2019-01-14T11:39:37.879Z,91.94
2019-01-14T11:40:37.870Z,92.11
2019-01-14T11:41:37.885Z,92.42
2019-01-14T11:42:37.910Z,92.05
2019-01-14T11:43:37.863Z,92.25
2019-01-14T11:44:37.837Z,90.56
2019-01-14T11:45:37.828Z,90.14
2019-01-14T11:46:37.855Z,90.29
2019-01-14T11:47:37.816Z,91.17
2019-01-14T11:48:37.830Z,90.04
2019-01-14T11:49:37.818Z,89.42
2019-01-14T11:50:37.781Z,90.20
2019-01-14T11:51:37.761Z,89.89
2019-01-14T11:52:37.758Z,89.95
2019-01-14T11:53:37.735Z,89.86
2019-01-14T11:54:37.805Z,90.26
2019-01-14T11:55:37.761Z,90.16
2019-01-14T11:56:37.746Z,89.44
2019-01-14T11:57:37.703Z,87.48
2019-01-14T11:58:37.682Z,87.27
2019-01-14T11:59:37.669Z,86.96
2019-01-14T12:00:37.735Z,86.96
2019-01-14T12:01:37.645Z,86.86
2019-01-14T12:02:39.625Z,87.27
2019-01-14T12:03:37.623Z,88.31
2019-01-14T12:04:37.633Z,88.41
2019-01-14T12:05:37.596Z,88.78
2019-01-14T12:06:37.631Z,87.02
2019-01-14T12:07:37.616Z,87.52
2019-01-14T12:08:37.598Z,85.92
2019-01-14T12:09:37.554Z,87.70
2019-01-14T12:10:37.545Z,89.48
2019-01-14T12:11:37.536Z,91.27
2019-01-14T12:12:37.588Z,93.54
2019-01-14T12:13:37.519Z,94.62
2019-01-14T12:14:37.642Z,96.01
2019-01-14T12:15:37.509Z,97.06
2019-01-14T12:16:37.486Z,97.10
2019-01-14T12:17:37.466Z,97.41
2019-01-14T12:18:37.508Z,98.35
2019-01-14T12:19:37.443Z,98.04
2019-01-14T12:20:37.433Z,98.35
2019-01-14T12:21:37.434Z,98.56
2019-01-14T12:22:37.411Z,98.87
2019-01-14T12:23:37.401Z,98.77
2019-01-14T12:24:37.440Z,98.56
2019-01-14T12:25:37.379Z,98.93
2019-01-14T12:26:37.375Z,98.93
2019-01-14T12:27:37.364Z,98.35
2019-01-14T12:28:37.356Z,98.93
2019-01-14T12:29:37.351Z,98.87
2019-01-14T12:30:37.419Z,98.31
2019-01-14T12:31:37.341Z,98.56
2019-01-14T12:32:37.307Z,98.66
2019-01-14T12:33:37.309Z,98.97
2019-01-14T12:34:37.305Z,98.77
2019-01-14T12:35:37.294Z,99.60
2019-01-14T12:36:37.303Z,99.45
2019-01-14T12:37:37.269Z,99.87
2019-01-14T12:38:37.245Z,99.51
2019-01-14T12:39:37.258Z,99.41
2019-01-14T12:40:37.247Z,98.94
2019-01-14T12:41:37.217Z,98.94
2019-01-14T12:42:37.270Z,98.80
2019-01-14T12:43:37.219Z,98.17
2019-01-14T12:44:37.182Z,97.71
2019-01-14T12:45:37.180Z,97.81
2019-01-14T12:46:37.154Z,98.13
2019-01-14T12:47:37.154Z,97.98
2019-01-14T12:48:37.247Z,97.67
2019-01-14T12:49:37.124Z,97.35
2019-01-14T12:50:37.127Z,96.31
2019-01-14T12:51:37.101Z,95.54
2019-01-14T12:52:37.125Z,95.03